Terminal Aerodrome Forecast
Issued by NWS

Home | Current Version | Previous Version | Text Only | Print | Product List | Glossary Off
Versions: 1 2 3 4 5 6 7 8 9 10 11 12 13 14 15 16 17 18

000
FTUS43 KGRB 231731
TAFRHI
TAF
KRHI 231731Z 2318/2418 34008G15KT P6SM BKN025
      TEMPO 2318/2319 BKN019
     FM232100 36007G17KT P6SM BKN028
     FM240200 02005KT P6SM BKN035
     FM240600 03003KT 3SM BR BKN014
      TEMPO 2409/2411 1SM BR BKN008
     FM241300 06004KT P6SM SCT025=

USA.gov is the U.S. government's official web portal to all federal, state and local government web resources and services.